createdAt,value
2022-12-12T01:50:31.672Z,29.00
2022-12-12T01:52:58.364Z,27.27
2022-12-12T01:55:25.468Z,29.83
2022-12-12T01:57:54.576Z,28.70
2022-12-12T02:00:21.327Z,29.57
2022-12-12T02:02:48.457Z,26.53
2022-12-12T02:05:31.305Z,25.90
2022-12-12T02:08:01.297Z,29.97
2022-12-12T02:10:28.347Z,29.77
2022-12-12T02:13:08.231Z,27.57
2022-12-12T02:15:56.909Z,27.80
2022-12-12T02:18:38.843Z,27.57
2022-12-12T02:21:21.035Z,25.73
2022-12-12T02:24:24.435Z,26.70
2022-12-12T02:27:04.231Z,27.20
2022-12-12T02:29:36.839Z,28.27
2022-12-12T02:32:36.544Z,28.13
2022-12-12T02:35:18.888Z,26.93
2022-12-12T02:38:06.881Z,28.67
2022-12-12T02:40:45.652Z,27.17
2022-12-12T02:43:49.832Z,27.00
2022-12-12T02:46:38.132Z,24.13
2022-12-12T02:49:25.304Z,27.43
2022-12-12T02:51:53.250Z,27.37
2022-12-12T02:54:22.342Z,27.07
2022-12-12T02:56:53.984Z,24.60
2022-12-12T02:59:42.462Z,25.87
2022-12-12T03:02:43.373Z,27.10
2022-12-12T03:05:42.308Z,26.87
2022-12-12T03:08:26.229Z,24.73
2022-12-12T03:11:33.990Z,25.60
2022-12-12T03:14:14.004Z,23.13
2022-12-12T03:16:50.715Z,23.03
2022-12-12T03:19:17.441Z,24.63
2022-12-12T03:22:07.048Z,22.70
2022-12-12T03:24:48.776Z,23.83
2022-12-12T03:27:20.550Z,26.67
2022-12-12T03:29:52.389Z,27.57
2022-12-12T03:32:24.458Z,27.17
2022-12-12T03:34:58.903Z,27.07
2022-12-12T03:37:39.130Z,26.53
2022-12-12T03:40:18.244Z,24.03
2022-12-12T03:42:57.112Z,25.10
2022-12-12T03:45:53.193Z,23.93
2022-12-12T03:48:38.431Z,25.33
2022-12-12T03:51:11.372Z,26.37
2022-12-12T03:53:44.646Z,25.00
2022-12-12T03:56:49.181Z,24.43
2022-12-12T03:59:32.481Z,27.43
2022-12-12T04:02:02.590Z,30.10
2022-12-12T04:04:46.544Z,25.23
2022-12-12T04:07:22.274Z,25.53
2022-12-12T04:10:08.296Z,27.57
2022-12-12T04:13:06.861Z,25.33
2022-12-12T04:16:05.477Z,25.67
2022-12-12T04:19:01.308Z,24.63
2022-12-12T04:22:12.867Z,29.57
2022-12-12T04:24:50.118Z,27.00
2022-12-12T04:27:28.837Z,30.30
2022-12-12T04:29:55.438Z,29.57
2022-12-12T04:32:36.029Z,27.53
2022-12-12T04:35:20.561Z,29.87
2022-12-12T04:37:57.636Z,31.43
2022-12-12T04:40:36.815Z,28.47
2022-12-12T04:43:10.280Z,30.27
2022-12-12T04:45:41.563Z,30.07
2022-12-12T04:48:12.978Z,27.93
2022-12-12T04:50:41.277Z,30.60
2022-12-12T04:53:18.544Z,27.60
2022-12-12T04:55:53.771Z,31.30
2022-12-12T04:58:20.578Z,31.93
2022-12-12T05:01:06.617Z,35.40
2022-12-12T05:03:43.692Z,30.00
2022-12-12T05:06:14.238Z,31.97
2022-12-12T05:08:49.288Z,31.33
2022-12-12T05:11:18.508Z,34.00
2022-12-12T05:13:45.652Z,29.40
2022-12-12T05:16:27.271Z,29.57
2022-12-12T05:18:53.932Z,31.87
2022-12-12T05:21:20.912Z,30.33
2022-12-12T05:23:47.586Z,35.53
2022-12-12T05:26:28.932Z,35.83
2022-12-12T05:28:56.396Z,32.43
2022-12-12T05:31:23.156Z,27.87
2022-12-12T05:33:49.830Z,29.87
2022-12-12T05:36:16.968Z,30.20
2022-12-12T05:38:43.840Z,31.67
2022-12-12T05:41:11.431Z,34.27
2022-12-12T05:43:38.343Z,30.43
2022-12-12T05:46:06.538Z,29.03
2022-12-12T05:48:33.914Z,27.27
2022-12-12T05:51:02.191Z,29.03
2022-12-12T05:53:29.376Z,30.90
2022-12-12T05:55:56.096Z,35.93
2022-12-12T05:58:23.147Z,28.63
2022-12-12T06:00:51.268Z,30.27
2022-12-12T06:03:20.125Z,28.73
2022-12-12T06:05:47.003Z,24.83
2022-12-12T06:08:13.852Z,22.70
2022-12-12T06:10:40.558Z,27.10
2022-12-12T06:13:07.238Z,21.77
2022-12-12T06:15:33.965Z,22.90
2022-12-12T06:18:00.681Z,24.67
2022-12-12T06:20:27.417Z,22.03
2022-12-12T06:22:54.222Z,20.70
2022-12-12T06:25:21.231Z,21.10
2022-12-12T06:27:48.003Z,31.03
2022-12-12T06:30:14.993Z,28.07
2022-12-12T06:32:41.963Z,32.83
2022-12-12T06:35:09.530Z,30.43
2022-12-12T06:37:36.439Z,31.10
2022-12-12T06:40:04.962Z,30.97
2022-12-12T06:42:31.700Z,31.63
2022-12-12T06:44:58.340Z,34.30
2022-12-12T06:47:25.093Z,32.77
2022-12-12T06:49:51.729Z,33.10
2022-12-12T06:52:18.414Z,33.17
2022-12-12T06:54:45.034Z,33.60
2022-12-12T06:57:11.687Z,32.70
2022-12-12T06:59:38.449Z,32.87
2022-12-12T07:02:05.480Z,33.20
2022-12-12T07:04:32.178Z,34.93
2022-12-12T07:06:58.848Z,33.10
2022-12-12T07:09:25.599Z,28.50
2022-12-12T07:11:52.242Z,33.40
2022-12-12T07:14:18.927Z,35.70
2022-12-12T07:16:45.617Z,34.00
2022-12-12T07:19:12.265Z,32.93
2022-12-12T07:21:39.193Z,33.53
2022-12-12T07:24:05.965Z,30.50
2022-12-12T07:26:32.715Z,33.20
2022-12-12T07:28:59.376Z,27.07
2022-12-12T07:31:26.538Z,28.63
2022-12-12T07:33:54.368Z,30.27
2022-12-12T07:36:22.223Z,29.33
2022-12-12T07:38:49.034Z,30.73
2022-12-12T07:41:18.551Z,36.50
2022-12-12T07:43:46.054Z,32.43
2022-12-12T07:46:16.781Z,32.23
2022-12-12T07:48:43.884Z,38.57
2022-12-12T07:51:10.646Z,38.73
2022-12-12T07:53:37.272Z,44.07
2022-12-12T07:56:08.873Z,31.47
2022-12-12T07:58:36.023Z,33.20
2022-12-12T08:01:19.565Z,31.07
2022-12-12T08:03:47.187Z,28.30
2022-12-12T08:06:16.224Z,30.50
2022-12-12T08:08:43.633Z,30.03
2022-12-12T08:11:12.621Z,25.07
2022-12-12T08:13:40.358Z,31.53
2022-12-12T08:16:12.507Z,29.07
2022-12-12T08:18:39.224Z,31.20
2022-12-12T08:21:10.908Z,30.13
2022-12-12T08:23:38.861Z,29.37
2022-12-12T08:26:11.369Z,30.27
2022-12-12T08:28:38.700Z,27.23
2022-12-12T08:31:05.442Z,34.93
2022-12-12T08:33:32.121Z,26.07
2022-12-12T08:35:59.185Z,29.80
2022-12-12T08:38:25.890Z,26.37
2022-12-12T08:40:52.629Z,26.07
2022-12-12T08:43:19.296Z,23.37
2022-12-12T08:45:47.472Z,25.17
2022-12-12T08:48:14.246Z,23.13
2022-12-12T08:50:41.493Z,24.53
2022-12-12T08:53:08.115Z,30.23
2022-12-12T08:55:34.811Z,26.80
2022-12-12T08:58:02.003Z,27.33
2022-12-12T09:00:28.748Z,24.23
2022-12-12T09:02:55.544Z,27.10
2022-12-12T09:05:22.355Z,27.67
2022-12-12T09:07:49.859Z,26.00
2022-12-12T09:10:16.722Z,26.80
2022-12-12T09:12:43.324Z,30.17
2022-12-12T09:15:10.495Z,27.43
2022-12-12T09:17:37.353Z,30.90
2022-12-12T09:20:04.730Z,34.93
2022-12-12T09:22:31.348Z,26.70
2022-12-12T09:24:58.027Z,23.60
2022-12-12T09:27:24.691Z,24.13
2022-12-12T09:29:51.377Z,26.10
2022-12-12T09:32:22.780Z,24.70
2022-12-12T09:34:51.207Z,20.33
2022-12-12T09:37:17.825Z,20.77
2022-12-12T09:39:44.532Z,20.03
2022-12-12T09:42:32.145Z,17.43
2022-12-12T09:45:07.574Z,18.30
2022-12-12T09:47:42.212Z,14.50
2022-12-12T09:50:21.867Z,16.50
2022-12-12T09:52:49.006Z,20.20
2022-12-12T09:55:37.410Z,18.20
2022-12-12T09:58:14.071Z,17.47
2022-12-12T10:00:49.103Z,19.00
2022-12-12T10:03:39.366Z,17.40
2022-12-12T10:09:30.124Z,20.67
2022-12-12T10:11:59.291Z,17.77
2022-12-12T10:14:45.820Z,19.00
2022-12-12T10:17:19.149Z,22.17
2022-12-12T10:19:55.788Z,17.07
2022-12-12T10:22:32.445Z,21.57
2022-12-12T10:25:20.143Z,20.30
2022-12-12T10:27:47.955Z,24.50
2022-12-12T10:30:18.102Z,23.00
2022-12-12T10:32:44.748Z,22.73
2022-12-12T10:35:39.588Z,27.13
2022-12-12T10:38:22.885Z,22.73
2022-12-12T10:40:59.513Z,20.60
2022-12-12T10:43:37.958Z,18.53
2022-12-12T10:46:17.740Z,24.23
2022-12-12T10:48:47.041Z,21.30
2022-12-12T10:51:17.585Z,19.43
2022-12-12T10:53:44.804Z,20.07
2022-12-12T10:56:19.676Z,18.17
2022-12-12T10:58:57.003Z,17.47
2022-12-12T11:02:08.438Z,15.97
2022-12-12T11:04:23.025Z,15.60
2022-12-12T11:06:52.115Z,15.63
2022-12-12T11:09:20.871Z,14.57
2022-12-12T11:12:02.927Z,14.83
2022-12-12T11:14:35.550Z,13.67
2022-12-12T11:17:02.989Z,18.27
2022-12-12T11:19:38.829Z,15.80
2022-12-12T11:22:05.615Z,18.90
2022-12-12T11:24:34.083Z,17.60
2022-12-12T11:27:04.032Z,17.60
2022-12-12T11:29:40.044Z,16.43
2022-12-12T11:32:47.904Z,18.73
2022-12-12T11:35:23.722Z,17.00
2022-12-12T11:37:55.886Z,16.63
2022-12-12T11:40:26.445Z,16.53
2022-12-12T11:43:24.276Z,17.87
2022-12-12T11:46:16.665Z,18.97
2022-12-12T11:48:52.695Z,17.13
2022-12-12T11:51:35.545Z,15.63
2022-12-12T11:54:04.867Z,15.63
2022-12-12T11:56:50.654Z,22.03
2022-12-12T11:59:39.005Z,22.10
2022-12-12T12:02:33.013Z,22.20
2022-12-12T12:05:18.368Z,22.27
2022-12-12T12:08:09.954Z,21.77
2022-12-12T12:10:42.465Z,21.90
2022-12-12T12:13:16.898Z,16.03
2022-12-12T12:15:51.968Z,16.10
2022-12-12T12:18:33.413Z,19.77
2022-12-12T12:21:27.995Z,17.37
2022-12-12T12:24:03.378Z,16.87
2022-12-12T12:26:49.700Z,18.97
2022-12-12T12:29:42.095Z,18.93
2022-12-12T12:32:16.174Z,21.50
2022-12-12T12:34:42.793Z,17.13
2022-12-12T12:37:31.710Z,12.87
2022-12-12T12:40:43.526Z,15.47
2022-12-12T12:43:16.283Z,16.63
2022-12-12T12:46:07.680Z,15.83
2022-12-12T12:48:58.549Z,20.23
2022-12-12T12:51:29.496Z,18.73
2022-12-12T12:54:02.378Z,17.40
2022-12-12T12:56:31.657Z,20.20
2022-12-12T12:59:04.896Z,20.23
2022-12-12T13:01:37.364Z,17.77
2022-12-12T13:04:23.053Z,17.57
2022-12-12T13:06:58.584Z,24.30
2022-12-12T13:10:01.760Z,24.33
2022-12-12T13:12:41.573Z,22.70
2022-12-12T13:15:28.036Z,20.50
2022-12-12T13:18:04.527Z,19.20
2022-12-12T13:20:34.696Z,21.23
2022-12-12T13:23:40.412Z,19.80
2022-12-12T13:26:13.040Z,20.90
2022-12-12T13:28:45.825Z,20.07
2022-12-12T13:31:34.023Z,22.97
2022-12-12T13:34:08.828Z,18.17
2022-12-12T13:36:38.566Z,21.57
2022-12-12T13:39:07.337Z,24.83
2022-12-12T13:42:09.349Z,19.63
2022-12-12T13:44:44.868Z,26.67
2022-12-12T13:47:23.828Z,26.37
2022-12-12T13:50:22.509Z,19.60
2022-12-12T13:53:09.380Z,20.70
2022-12-12T13:55:37.094Z,20.33
2022-12-12T13:58:16.935Z,20.47
2022-12-12T14:00:44.042Z,22.27
2022-12-12T14:03:10.812Z,19.53
2022-12-12T14:05:52.639Z,19.50
2022-12-12T14:08:23.382Z,19.67
2022-12-12T14:10:50.050Z,17.97
2022-12-12T14:13:22.623Z,19.50
2022-12-12T14:16:23.045Z,19.47
2022-12-12T14:18:49.694Z,20.13
2022-12-12T14:21:18.894Z,18.80
2022-12-12T14:23:51.781Z,18.67
2022-12-12T14:26:27.858Z,18.53
2022-12-12T14:29:16.325Z,20.13
2022-12-12T14:32:24.225Z,18.30
2022-12-12T14:34:59.689Z,19.37
2022-12-12T14:37:38.325Z,18.90
2022-12-12T14:40:05.033Z,19.97
2022-12-12T14:43:20.263Z,22.80
2022-12-12T14:45:49.528Z,21.37
2022-12-12T14:48:22.904Z,19.83
2022-12-12T14:51:04.801Z,24.20
2022-12-12T14:53:45.740Z,20.90
2022-12-12T14:56:26.457Z,23.90
2022-12-12T14:59:05.554Z,21.10
2022-12-12T15:01:34.264Z,21.17
2022-12-12T15:04:04.213Z,22.93
2022-12-12T15:06:43.481Z,23.37
2022-12-12T15:09:29.597Z,23.27
2022-12-12T15:12:17.647Z,19.60
2022-12-12T15:14:47.295Z,22.87
2022-12-12T15:17:17.967Z,21.60
2022-12-12T15:20:07.070Z,21.73
2022-12-12T15:22:36.888Z,22.93
2022-12-12T15:25:18.186Z,24.87
2022-12-12T15:27:53.844Z,23.63
2022-12-12T15:30:34.237Z,21.13
2022-12-12T15:33:03.274Z,22.57
2022-12-12T15:35:30.377Z,22.77
2022-12-12T15:38:00.444Z,21.77
2022-12-12T15:40:32.167Z,25.23
2022-12-12T15:43:11.761Z,24.10
2022-12-12T15:45:42.781Z,24.37
2022-12-12T15:48:17.362Z,24.00
2022-12-12T15:50:44.067Z,23.73
2022-12-12T15:53:29.902Z,23.50
2022-12-12T15:56:04.769Z,22.57
2022-12-12T15:58:43.790Z,23.77
2022-12-12T16:01:20.298Z,23.30
2022-12-12T16:04:02.698Z,19.33
2022-12-12T16:06:44.441Z,20.70
2022-12-12T16:09:11.041Z,18.10
2022-12-12T16:11:42.555Z,18.20
2022-12-12T16:14:27.897Z,19.40
2022-12-12T16:17:03.128Z,19.63
2022-12-12T16:19:51.368Z,21.30
2022-12-12T16:22:47.782Z,19.73
2022-12-12T16:25:27.721Z,17.43
2022-12-12T16:28:09.768Z,18.37
2022-12-12T16:30:38.083Z,22.17
2022-12-12T16:33:35.411Z,15.87
2022-12-12T16:36:11.341Z,18.20
2022-12-12T16:38:40.107Z,18.03
2022-12-12T16:41:18.241Z,16.47
2022-12-12T16:43:45.401Z,17.13
2022-12-12T16:46:17.218Z,26.57
2022-12-12T16:48:44.122Z,16.87
2022-12-12T16:51:16.728Z,16.13
2022-12-12T16:53:43.599Z,20.93
2022-12-12T16:56:13.258Z,17.37
2022-12-12T16:58:41.272Z,20.40
2022-12-12T17:01:08.006Z,20.20
2022-12-12T17:03:34.709Z,18.37
2022-12-12T17:06:01.639Z,15.93
2022-12-12T17:08:28.656Z,19.43
2022-12-12T17:11:10.442Z,15.83
2022-12-12T17:13:40.901Z,16.83
2022-12-12T17:16:07.711Z,16.83
2022-12-12T17:18:34.484Z,19.03
2022-12-12T17:21:01.097Z,21.17
2022-12-12T17:23:27.821Z,17.83
2022-12-12T17:26:00.736Z,16.07
2022-12-12T17:28:29.516Z,18.90
2022-12-12T17:30:56.184Z,16.93
2022-12-12T17:33:22.821Z,19.87
2022-12-12T17:36:04.451Z,19.23
2022-12-12T17:38:31.476Z,17.37
2022-12-12T17:41:01.947Z,18.80
2022-12-12T17:43:28.605Z,19.50
2022-12-12T17:46:03.363Z,17.70
2022-12-12T17:48:32.034Z,17.10
2022-12-12T17:51:04.261Z,18.13
2022-12-12T17:53:32.692Z,18.80
2022-12-12T17:56:01.719Z,22.10
2022-12-12T17:58:40.362Z,19.67
2022-12-12T18:01:18.726Z,20.83
2022-12-12T18:03:46.043Z,19.73
2022-12-12T18:06:14.251Z,20.83
2022-12-12T18:08:41.186Z,19.57
2022-12-12T18:11:09.971Z,19.43
2022-12-12T18:13:38.618Z,20.17
2022-12-12T18:16:06.469Z,21.07
2022-12-12T18:18:33.233Z,20.77
2022-12-12T18:21:08.696Z,18.90
2022-12-12T18:23:36.143Z,19.37
2022-12-12T18:26:08.933Z,18.07
2022-12-12T18:28:36.254Z,20.10
2022-12-12T18:31:04.191Z,17.10
2022-12-12T18:33:31.262Z,22.30
2022-12-12T18:36:03.373Z,19.93
2022-12-12T18:38:30.990Z,21.80
2022-12-12T18:40:57.798Z,23.90
2022-12-12T18:43:26.404Z,23.40
2022-12-12T18:45:53.871Z,21.50
2022-12-12T18:48:20.575Z,26.87
2022-12-12T18:50:47.832Z,33.40
2022-12-12T18:53:14.471Z,34.57
2022-12-12T18:55:44.800Z,41.60
2022-12-12T18:58:12.302Z,40.97
2022-12-12T19:00:40.307Z,38.50
2022-12-12T19:03:08.052Z,36.17
2022-12-12T19:05:40.551Z,34.87
2022-12-12T19:08:07.847Z,36.63
2022-12-12T19:10:38.399Z,36.10
2022-12-12T19:13:05.079Z,33.77
2022-12-12T19:15:31.857Z,35.70
2022-12-12T19:17:58.543Z,35.70
2022-12-12T19:20:25.624Z,35.57
2022-12-12T19:22:52.311Z,35.97
2022-12-12T19:25:19.052Z,32.90
2022-12-12T19:27:46.431Z,36.13
2022-12-12T19:30:15.686Z,32.70
2022-12-12T19:32:42.659Z,35.50
2022-12-12T19:35:10.007Z,35.20
2022-12-12T19:37:37.254Z,33.73
2022-12-12T19:40:05.781Z,36.83
2022-12-12T19:42:32.432Z,35.93
2022-12-12T19:44:59.083Z,31.43
2022-12-12T19:47:25.810Z,37.97
2022-12-12T19:49:52.549Z,33.47
2022-12-12T19:52:19.732Z,33.90
2022-12-12T19:54:46.379Z,36.53
2022-12-12T19:57:13.063Z,39.50
2022-12-12T19:59:40.030Z,36.90
2022-12-12T20:02:07.219Z,37.73
2022-12-12T20:04:33.948Z,42.27
2022-12-12T20:07:03.591Z,45.30
2022-12-12T20:09:30.463Z,37.60
2022-12-12T20:12:00.325Z,37.87
2022-12-12T20:14:29.708Z,39.60
2022-12-12T20:16:57.582Z,41.83
2022-12-12T20:19:26.875Z,36.17
2022-12-12T20:22:02.573Z,33.97
2022-12-12T20:24:30.903Z,37.87
2022-12-12T20:26:59.273Z,36.13
2022-12-12T20:29:26.317Z,36.07
2022-12-12T20:31:53.003Z,34.93
2022-12-12T20:34:25.018Z,37.80
2022-12-12T20:36:52.590Z,38.07
2022-12-12T20:39:21.912Z,40.77
2022-12-12T20:41:50.076Z,39.57
2022-12-12T20:44:16.732Z,36.50
2022-12-12T20:46:45.443Z,38.30
2022-12-12T20:49:17.667Z,40.57
2022-12-12T20:52:00.949Z,39.27
2022-12-12T20:54:29.172Z,39.20
2022-12-12T20:56:57.183Z,44.43
2022-12-12T20:59:24.766Z,39.40
2022-12-12T21:01:52.059Z,41.43
2022-12-12T21:04:18.896Z,35.83
2022-12-12T21:06:51.108Z,41.03
2022-12-12T21:09:23.928Z,41.17
2022-12-12T21:11:56.935Z,43.87
2022-12-12T21:14:25.120Z,39.47
2022-12-12T21:16:51.820Z,36.63
2022-12-12T21:19:18.987Z,40.80
2022-12-12T21:21:46.427Z,39.83
2022-12-12T21:24:15.363Z,50.50
2022-12-12T21:26:42.662Z,38.80
2022-12-12T21:29:09.851Z,36.83
2022-12-12T21:31:42.333Z,37.43
2022-12-12T21:34:13.496Z,34.23
2022-12-12T21:36:40.224Z,32.93
2022-12-12T21:39:07.116Z,35.20
2022-12-12T21:41:34.987Z,34.27
2022-12-12T21:44:01.772Z,36.20
2022-12-12T21:46:30.109Z,33.20
2022-12-12T21:49:16.658Z,33.10
2022-12-12T21:51:43.842Z,35.23
2022-12-12T21:54:12.512Z,33.43
2022-12-12T21:56:40.729Z,34.60
2022-12-12T21:59:08.927Z,35.47
2022-12-12T22:01:35.652Z,37.40
2022-12-12T22:04:02.742Z,36.70
2022-12-12T22:06:32.444Z,35.23
2022-12-12T22:09:00.590Z,32.23
2022-12-12T22:11:39.912Z,34.10
2022-12-12T22:14:13.663Z,35.30
2022-12-12T22:16:40.388Z,35.30
2022-12-12T22:19:10.096Z,34.77
2022-12-12T22:21:37.210Z,35.13
2022-12-12T22:24:04.656Z,36.03
2022-12-12T22:26:34.803Z,35.17
2022-12-12T22:29:14.235Z,39.63
2022-12-12T22:31:41.878Z,36.03
2022-12-12T22:34:15.661Z,38.73
2022-12-12T22:36:44.216Z,41.13
2022-12-12T22:39:18.206Z,34.83
2022-12-12T22:41:45.453Z,39.30
2022-12-12T22:44:15.653Z,37.47
2022-12-12T22:46:46.091Z,37.37
2022-12-12T22:49:20.068Z,39.07
2022-12-12T22:51:48.251Z,34.20
2022-12-12T22:54:15.462Z,35.90
2022-12-12T22:56:42.242Z,32.50
2022-12-12T22:59:11.725Z,33.57
2022-12-12T23:01:38.441Z,37.83
2022-12-12T23:04:05.466Z,31.00
2022-12-12T23:06:34.558Z,33.47
2022-12-12T23:09:06.954Z,27.30
2022-12-12T23:11:35.050Z,31.70
2022-12-12T23:14:07.378Z,28.57
2022-12-12T23:16:35.779Z,31.57
2022-12-12T23:19:04.988Z,32.53
2022-12-12T23:21:32.236Z,37.50
2022-12-12T23:23:58.920Z,40.47
2022-12-12T23:26:29.905Z,33.77
2022-12-12T23:29:00.200Z,33.10
2022-12-12T23:31:30.260Z,37.20
2022-12-12T23:34:01.504Z,36.67
2022-12-12T23:36:28.850Z,35.83
2022-12-12T23:39:00.676Z,37.97
2022-12-12T23:41:27.997Z,34.67
2022-12-12T23:43:55.428Z,32.90
2022-12-12T23:46:28.701Z,34.10
2022-12-12T23:49:01.379Z,32.13
2022-12-12T23:51:30.413Z,30.97
2022-12-12T23:53:59.067Z,33.67
2022-12-12T23:56:26.478Z,29.87
2022-12-12T23:58:54.119Z,32.90
